createdAt,value
2017-12-06T00:00:30.039Z,0
2017-12-06T00:01:38.243Z,0
2017-12-06T00:02:46.349Z,0
2017-12-06T00:03:54.421Z,0
2017-12-06T00:05:02.505Z,0
2017-12-06T00:06:10.601Z,0
2017-12-06T00:07:18.677Z,0
2017-12-06T00:08:26.766Z,0
2017-12-06T00:09:34.854Z,0
2017-12-06T00:10:42.952Z,0
2017-12-06T00:11:51.056Z,0
2017-12-06T00:12:59.294Z,0
2017-12-06T00:14:07.212Z,0
2017-12-06T00:15:15.301Z,0
2017-12-06T00:16:23.389Z,0
2017-12-06T00:17:31.492Z,0
2017-12-06T00:18:39.575Z,0
2017-12-06T00:19:47.664Z,0
2017-12-06T00:20:55.750Z,0
2017-12-06T00:22:03.836Z,0
2017-12-06T00:23:11.925Z,0
2017-12-06T00:24:20.012Z,0
2017-12-06T00:25:28.098Z,0
2017-12-06T00:26:36.187Z,0
2017-12-06T00:27:44.274Z,0
2017-12-06T00:28:52.363Z,0
2017-12-06T00:30:00.448Z,0
2017-12-06T00:31:08.534Z,0
2017-12-06T00:32:16.621Z,0
2017-12-06T00:33:24.709Z,0
2017-12-06T00:34:32.802Z,0
2017-12-06T00:35:40.886Z,0
2017-12-06T00:36:48.977Z,0
2017-12-06T00:37:57.061Z,0
2017-12-06T00:39:05.160Z,0
2017-12-06T00:40:13.240Z,0
2017-12-06T00:41:21.346Z,0
2017-12-06T00:42:29.419Z,0
2017-12-06T00:43:37.506Z,0
2017-12-06T00:44:45.594Z,0
2017-12-06T00:45:53.679Z,0
2017-12-06T00:47:01.773Z,0
2017-12-06T00:48:09.856Z,0
2017-12-06T00:49:17.940Z,0
2017-12-06T00:50:26.033Z,0
2017-12-06T00:51:34.136Z,0
2017-12-06T00:52:42.290Z,0
2017-12-06T00:53:50.291Z,0
2017-12-06T00:54:58.469Z,0
2017-12-06T00:56:06.468Z,0
2017-12-06T00:57:14.557Z,0
2017-12-06T00:58:22.642Z,0
2017-12-06T00:59:30.728Z,0
2017-12-06T01:00:38.817Z,0
2017-12-06T01:01:46.903Z,0
2017-12-06T01:02:54.994Z,0
2017-12-06T01:04:03.086Z,0
2017-12-06T01:05:11.168Z,0
2017-12-06T01:06:19.256Z,0
2017-12-06T01:07:27.364Z,0
2017-12-06T01:08:35.445Z,0
2017-12-06T01:09:43.533Z,0
2017-12-06T01:10:51.628Z,0
2017-12-06T01:11:59.713Z,0
2017-12-06T01:13:07.800Z,0
2017-12-06T01:14:15.884Z,0
2017-12-06T01:15:23.973Z,0
2017-12-06T01:16:32.066Z,0
2017-12-06T01:17:40.175Z,0
2017-12-06T01:18:48.253Z,0
2017-12-06T01:19:56.341Z,0
2017-12-06T01:21:04.548Z,0
2017-12-06T01:22:12.632Z,0
2017-12-06T01:23:20.721Z,0
2017-12-06T01:24:28.813Z,0
2017-12-06T01:25:36.895Z,0
2017-12-06T01:26:44.987Z,0
2017-12-06T01:27:53.078Z,0
2017-12-06T01:29:01.160Z,0
2017-12-06T01:30:09.249Z,0
2017-12-06T01:31:17.335Z,0
2017-12-06T01:32:25.419Z,0
2017-12-06T01:33:33.606Z,0
2017-12-06T01:34:41.594Z,0
2017-12-06T01:35:49.683Z,0
2017-12-06T01:36:57.776Z,0
2017-12-06T01:38:05.865Z,0
2017-12-06T01:39:13.951Z,0
2017-12-06T01:40:22.049Z,0
2017-12-06T01:41:30.852Z,0
2017-12-06T01:42:38.937Z,0
2017-12-06T01:43:47.023Z,0
2017-12-06T01:44:55.141Z,0
2017-12-06T01:46:03.207Z,0
2017-12-06T01:47:11.287Z,0
2017-12-06T01:48:19.376Z,0
2017-12-06T01:49:27.464Z,0
2017-12-06T01:50:35.568Z,0
2017-12-06T01:51:43.659Z,0
2017-12-06T01:52:51.723Z,0
2017-12-06T01:53:59.812Z,0
2017-12-06T01:55:07.900Z,0
2017-12-06T01:56:15.991Z,0
2017-12-06T01:57:24.092Z,0
2017-12-06T01:58:32.171Z,0
2017-12-06T01:59:40.257Z,0
2017-12-06T02:00:48.570Z,0
2017-12-06T02:01:56.658Z,0
2017-12-06T02:03:04.757Z,0
2017-12-06T02:04:12.833Z,0
2017-12-06T02:05:20.921Z,0
2017-12-06T02:06:29.012Z,0
2017-12-06T02:07:37.095Z,0
2017-12-06T02:08:45.200Z,0
2017-12-06T02:09:53.276Z,0
2017-12-06T02:11:01.357Z,0
2017-12-06T02:12:09.445Z,0
2017-12-06T02:13:17.544Z,0
2017-12-06T02:14:25.623Z,0
2017-12-06T02:15:33.708Z,0
2017-12-06T02:16:41.799Z,0
2017-12-06T02:17:49.880Z,0
2017-12-06T02:18:57.969Z,0
2017-12-06T02:20:06.080Z,0
2017-12-06T02:21:14.148Z,0
2017-12-06T02:22:22.326Z,0
2017-12-06T02:23:30.320Z,0
2017-12-06T02:24:38.412Z,0
2017-12-06T02:25:46.495Z,0
2017-12-06T02:26:54.589Z,0
2017-12-06T02:28:02.678Z,0
2017-12-06T02:29:10.767Z,0
2017-12-06T02:30:18.863Z,0
2017-12-06T02:31:26.944Z,0
2017-12-06T02:32:35.039Z,0
2017-12-06T02:33:43.130Z,0
2017-12-06T02:34:51.726Z,0
2017-12-06T02:35:59.863Z,0
2017-12-06T02:37:07.951Z,0
2017-12-06T02:38:16.049Z,0
2017-12-06T02:39:24.133Z,0
2017-12-06T02:40:32.214Z,0
2017-12-06T02:41:40.301Z,0
2017-12-06T02:42:48.388Z,0
2017-12-06T02:43:56.482Z,0
2017-12-06T02:45:04.563Z,0
2017-12-06T02:46:12.653Z,0
2017-12-06T02:47:20.742Z,0
2017-12-06T02:48:28.828Z,0
2017-12-06T02:49:36.915Z,0
2017-12-06T02:50:45.001Z,0
2017-12-06T02:51:53.090Z,0
2017-12-06T02:53:01.182Z,0
2017-12-06T02:54:09.265Z,0
2017-12-06T02:55:17.355Z,0
2017-12-06T02:56:25.440Z,0
2017-12-06T02:57:33.541Z,0
2017-12-06T02:58:41.618Z,0
2017-12-06T02:59:49.703Z,0
2017-12-06T03:00:57.791Z,0
2017-12-06T03:02:05.874Z,0
2017-12-06T03:03:13.973Z,0
2017-12-06T03:04:22.050Z,0
2017-12-06T03:05:30.138Z,0
2017-12-06T03:06:38.225Z,0
2017-12-06T03:07:46.321Z,0
2017-12-06T03:08:54.405Z,0
2017-12-06T03:10:02.503Z,0
2017-12-06T03:11:10.586Z,0
2017-12-06T03:12:18.673Z,0
2017-12-06T03:13:26.769Z,0
2017-12-06T03:14:34.856Z,0
2017-12-06T03:15:42.942Z,0
2017-12-06T03:16:51.035Z,0
2017-12-06T03:17:59.126Z,0
2017-12-06T03:19:07.211Z,0
2017-12-06T03:20:15.299Z,0
2017-12-06T03:21:23.379Z,0
2017-12-06T03:22:31.468Z,0
2017-12-06T03:23:39.563Z,0
2017-12-06T03:24:47.645Z,0
2017-12-06T03:25:55.731Z,0
2017-12-06T03:27:03.835Z,0
2017-12-06T03:28:11.922Z,0
2017-12-06T03:29:20.012Z,0
2017-12-06T03:30:28.121Z,0
2017-12-06T03:31:36.189Z,0
2017-12-06T03:32:44.274Z,0
2017-12-06T03:33:52.365Z,0
2017-12-06T03:35:00.449Z,0
2017-12-06T03:36:08.538Z,0
2017-12-06T03:37:16.621Z,0
2017-12-06T03:38:24.726Z,0
2017-12-06T03:39:32.796Z,0
2017-12-06T03:40:40.883Z,0
2017-12-06T03:41:48.982Z,0
2017-12-06T03:42:57.071Z,0
2017-12-06T03:44:05.161Z,0
2017-12-06T03:45:13.244Z,0
2017-12-06T03:46:21.332Z,0
2017-12-06T03:47:29.414Z,0
2017-12-06T03:48:37.503Z,0
2017-12-06T03:49:45.597Z,0
2017-12-06T03:50:53.678Z,0
2017-12-06T03:52:01.764Z,0
2017-12-06T03:53:09.852Z,0
2017-12-06T03:54:17.937Z,0
2017-12-06T03:55:26.043Z,0
2017-12-06T03:56:34.203Z,0
2017-12-06T03:57:42.195Z,0
2017-12-06T03:58:50.286Z,0
2017-12-06T03:59:58.371Z,0
2017-12-06T04:01:06.456Z,0
2017-12-06T04:02:14.545Z,0
2017-12-06T04:03:22.630Z,0
2017-12-06T04:04:30.718Z,0
2017-12-06T04:05:38.802Z,0
2017-12-06T04:06:46.888Z,0
2017-12-06T04:07:54.971Z,0
2017-12-06T04:09:03.067Z,0
2017-12-06T04:10:11.150Z,0
2017-12-06T04:11:19.236Z,0
2017-12-06T04:12:27.597Z,0
2017-12-06T04:13:35.411Z,0
2017-12-06T04:14:43.502Z,0
2017-12-06T04:15:51.591Z,0
2017-12-06T04:16:59.679Z,0
2017-12-06T04:18:07.766Z,0
2017-12-06T04:19:15.850Z,0
2017-12-06T04:20:23.952Z,0
2017-12-06T04:21:32.035Z,0
2017-12-06T04:22:40.132Z,0
2017-12-06T04:23:48.221Z,0
2017-12-06T04:24:56.828Z,0
2017-12-06T04:26:04.915Z,0
2017-12-06T04:27:13.005Z,0
2017-12-06T04:28:21.092Z,0
2017-12-06T04:29:29.172Z,0
2017-12-06T04:30:37.267Z,0
2017-12-06T04:31:45.350Z,0
2017-12-06T04:32:53.432Z,0
2017-12-06T04:34:01.524Z,0
2017-12-06T04:35:09.605Z,0
2017-12-06T04:36:17.690Z,0
2017-12-06T04:37:25.775Z,0
2017-12-06T04:38:33.864Z,0
2017-12-06T04:39:41.965Z,0
2017-12-06T04:40:50.035Z,0
2017-12-06T04:41:58.137Z,0
2017-12-06T04:43:06.208Z,0
2017-12-06T04:44:14.295Z,0
2017-12-06T04:45:22.378Z,0
2017-12-06T04:46:30.883Z,0
2017-12-06T04:47:38.564Z,0
2017-12-06T04:48:46.647Z,0
2017-12-06T04:49:54.744Z,0
2017-12-06T04:51:02.821Z,0
2017-12-06T04:52:10.903Z,0
2017-12-06T04:53:18.996Z,0
2017-12-06T04:54:27.355Z,0
2017-12-06T04:55:35.584Z,0
2017-12-06T04:56:43.668Z,0
2017-12-06T04:57:51.762Z,0
2017-12-06T04:58:59.845Z,0
2017-12-06T05:00:07.932Z,0
2017-12-06T05:01:16.022Z,0
2017-12-06T05:02:24.106Z,0
2017-12-06T05:03:32.194Z,0
2017-12-06T05:04:40.295Z,0
2017-12-06T05:05:48.364Z,0
2017-12-06T05:06:56.452Z,0
2017-12-06T05:08:04.535Z,0
2017-12-06T05:09:12.738Z,0
2017-12-06T05:10:20.826Z,0
2017-12-06T05:11:28.920Z,0
2017-12-06T05:12:37.007Z,0
2017-12-06T05:13:45.095Z,0
2017-12-06T05:14:53.179Z,0
2017-12-06T05:16:01.269Z,0
2017-12-06T05:17:09.350Z,0
2017-12-06T05:18:17.439Z,0
2017-12-06T05:19:25.528Z,0
2017-12-06T05:20:33.697Z,0
2017-12-06T05:21:41.780Z,0
2017-12-06T05:22:49.864Z,0
2017-12-06T05:23:57.949Z,0
2017-12-06T05:25:06.094Z,0
2017-12-06T05:26:14.120Z,0
2017-12-06T05:27:22.224Z,0
2017-12-06T05:28:30.292Z,0
2017-12-06T05:29:38.408Z,0
2017-12-06T05:30:46.463Z,0
2017-12-06T05:31:54.551Z,0
2017-12-06T05:33:02.638Z,0
2017-12-06T05:34:10.721Z,0
2017-12-06T05:35:18.808Z,0
2017-12-06T05:36:26.895Z,0
2017-12-06T05:37:34.985Z,0
2017-12-06T05:38:43.083Z,0
2017-12-06T05:39:51.161Z,0
2017-12-06T05:40:59.279Z,0
2017-12-06T05:42:07.373Z,0
2017-12-06T05:43:15.457Z,0
2017-12-06T05:44:23.543Z,0
2017-12-06T05:45:31.637Z,0
2017-12-06T05:46:39.718Z,0
2017-12-06T05:47:47.803Z,0
2017-12-06T05:48:55.887Z,0
2017-12-06T05:50:03.983Z,0
2017-12-06T05:51:12.090Z,0
2017-12-06T05:52:20.154Z,0
2017-12-06T05:53:28.819Z,0
2017-12-06T05:54:36.337Z,0
2017-12-06T05:55:44.423Z,0
2017-12-06T05:56:52.518Z,0
2017-12-06T05:58:00.601Z,0
2017-12-06T05:59:08.707Z,0
2017-12-06T06:00:16.772Z,0
2017-12-06T06:01:24.870Z,0
2017-12-06T06:02:33.029Z,0
2017-12-06T06:03:41.124Z,0
2017-12-06T06:04:49.203Z,24
2017-12-06T06:05:57.283Z,0
2017-12-06T06:07:05.369Z,0
2017-12-06T06:08:13.460Z,0
2017-12-06T06:09:21.542Z,0
2017-12-06T06:10:29.706Z,0
2017-12-06T06:11:37.712Z,0
2017-12-06T06:12:45.798Z,0
2017-12-06T06:13:53.883Z,0
2017-12-06T06:15:01.969Z,0
2017-12-06T06:16:10.058Z,0
2017-12-06T06:17:18.139Z,0
2017-12-06T06:18:26.226Z,0
2017-12-06T06:19:34.473Z,0
2017-12-06T06:20:42.403Z,0
2017-12-06T06:21:50.482Z,0
2017-12-06T06:22:58.566Z,0
2017-12-06T06:24:06.663Z,0
2017-12-06T06:25:14.737Z,0
2017-12-06T06:26:22.823Z,0
2017-12-06T06:27:30.910Z,0
2017-12-06T06:28:39.044Z,0
2017-12-06T06:29:47.100Z,0
2017-12-06T06:30:55.168Z,0
2017-12-06T06:32:03.250Z,0
2017-12-06T06:33:11.339Z,0
2017-12-06T06:34:19.424Z,0
2017-12-06T06:35:27.508Z,0
2017-12-06T06:36:35.592Z,0
2017-12-06T06:37:43.678Z,0
2017-12-06T06:38:51.763Z,0
2017-12-06T06:39:59.850Z,0
2017-12-06T06:41:07.932Z,0
2017-12-06T06:42:16.021Z,0
2017-12-06T06:43:24.111Z,0
2017-12-06T06:44:32.189Z,0
2017-12-06T06:45:40.275Z,0
2017-12-06T06:46:48.366Z,0
2017-12-06T06:47:56.445Z,0
2017-12-06T06:49:04.535Z,0
2017-12-06T06:50:12.617Z,0
2017-12-06T06:51:20.702Z,0
2017-12-06T06:52:28.786Z,0
2017-12-06T06:53:36.873Z,0
2017-12-06T06:54:44.957Z,0
2017-12-06T06:55:53.070Z,0
2017-12-06T06:57:01.146Z,0
2017-12-06T06:58:09.246Z,0
2017-12-06T06:59:17.313Z,0
2017-12-06T07:00:25.398Z,0
2017-12-06T07:01:33.489Z,0
2017-12-06T07:02:41.570Z,0
2017-12-06T07:03:49.657Z,0
2017-12-06T07:04:57.742Z,0
2017-12-06T07:06:05.826Z,4
2017-12-06T07:07:13.913Z,4
2017-12-06T07:08:21.999Z,4
2017-12-06T07:09:30.087Z,4
2017-12-06T07:10:38.168Z,4
2017-12-06T07:11:46.316Z,4
2017-12-06T07:12:54.347Z,0
2017-12-06T07:14:02.429Z,0
2017-12-06T07:15:10.533Z,0
2017-12-06T07:16:18.602Z,0
2017-12-06T07:17:26.701Z,0
2017-12-06T07:18:34.772Z,0
2017-12-06T07:19:42.857Z,4
2017-12-06T07:20:50.943Z,4
2017-12-06T07:21:59.430Z,4
2017-12-06T07:23:07.220Z,4
2017-12-06T07:24:15.213Z,4
2017-12-06T07:25:23.301Z,0
2017-12-06T07:26:31.371Z,0
2017-12-06T07:27:39.479Z,4
2017-12-06T07:28:47.541Z,4
2017-12-06T07:29:55.631Z,4
2017-12-06T07:31:03.714Z,4
2017-12-06T07:32:11.828Z,4
2017-12-06T07:33:19.883Z,4
2017-12-06T07:34:27.969Z,4
2017-12-06T07:35:36.059Z,4
2017-12-06T07:36:44.153Z,4
2017-12-06T07:37:52.228Z,4
2017-12-06T07:39:00.317Z,4
2017-12-06T07:40:08.400Z,4
2017-12-06T07:41:16.488Z,8
2017-12-06T07:42:24.575Z,4
2017-12-06T07:43:32.658Z,4
2017-12-06T07:44:40.743Z,4
2017-12-06T07:45:48.827Z,8
2017-12-06T07:46:56.913Z,4
2017-12-06T07:48:04.999Z,4
2017-12-06T07:49:13.082Z,4
2017-12-06T07:50:21.179Z,8
2017-12-06T07:51:29.275Z,8
2017-12-06T07:52:37.342Z,8
2017-12-06T07:53:45.428Z,8
2017-12-06T07:54:54.052Z,8
2017-12-06T07:56:01.598Z,8
2017-12-06T07:57:09.684Z,8
2017-12-06T07:58:17.770Z,8
2017-12-06T07:59:25.854Z,8
2017-12-06T08:00:33.951Z,8
2017-12-06T08:01:42.027Z,8
2017-12-06T08:02:50.122Z,12
2017-12-06T08:03:58.198Z,8
2017-12-06T08:05:06.292Z,8
2017-12-06T08:06:14.381Z,8
2017-12-06T08:07:22.462Z,8
2017-12-06T08:08:30.788Z,8
2017-12-06T08:09:38.874Z,8
2017-12-06T08:10:46.962Z,12
2017-12-06T08:11:55.047Z,12
2017-12-06T08:13:03.134Z,12
2017-12-06T08:14:11.216Z,12
2017-12-06T08:15:19.302Z,12
2017-12-06T08:16:27.391Z,12
2017-12-06T08:17:35.488Z,16
2017-12-06T08:18:43.755Z,12
2017-12-06T08:19:51.850Z,16
2017-12-06T08:20:59.930Z,12
2017-12-06T08:22:08.014Z,12
2017-12-06T08:23:16.104Z,12
2017-12-06T08:24:24.189Z,16
2017-12-06T08:25:32.279Z,12
2017-12-06T08:26:40.365Z,16
2017-12-06T08:27:48.456Z,12
2017-12-06T08:28:56.538Z,16
2017-12-06T08:30:04.622Z,16
2017-12-06T08:31:12.716Z,16
2017-12-06T08:32:20.798Z,16
2017-12-06T08:33:28.879Z,16
2017-12-06T08:34:36.965Z,16
2017-12-06T08:35:45.055Z,20
2017-12-06T08:36:53.139Z,16
2017-12-06T08:38:01.226Z,16
2017-12-06T08:39:09.310Z,20
2017-12-06T08:40:17.396Z,20
2017-12-06T08:41:25.595Z,20
2017-12-06T08:42:33.685Z,20
2017-12-06T08:43:41.784Z,20
2017-12-06T08:44:49.866Z,16
2017-12-06T08:45:57.953Z,20
2017-12-06T08:47:06.045Z,20
2017-12-06T08:48:14.126Z,20
2017-12-06T08:49:22.212Z,20
2017-12-06T08:50:30.300Z,20
2017-12-06T08:51:38.384Z,20
2017-12-06T08:52:46.467Z,20
2017-12-06T08:53:54.554Z,16
2017-12-06T08:55:02.638Z,20
2017-12-06T08:56:10.726Z,20
2017-12-06T08:57:18.814Z,20
2017-12-06T08:58:26.901Z,20
2017-12-06T08:59:34.987Z,20
2017-12-06T09:00:43.072Z,20
2017-12-06T09:01:51.157Z,20
2017-12-06T09:02:59.247Z,20
2017-12-06T09:04:07.332Z,20
2017-12-06T09:05:15.418Z,20
2017-12-06T09:06:23.507Z,20
2017-12-06T09:07:31.587Z,24
2017-12-06T09:08:39.684Z,24
2017-12-06T09:09:47.769Z,20
2017-12-06T09:10:55.856Z,20
2017-12-06T09:12:03.940Z,20
2017-12-06T09:13:12.032Z,24
2017-12-06T09:14:20.117Z,24
2017-12-06T09:15:28.200Z,20
2017-12-06T09:16:36.305Z,20
2017-12-06T09:17:44.434Z,24
2017-12-06T09:18:52.456Z,24
2017-12-06T09:20:00.543Z,20
2017-12-06T09:21:08.628Z,24
2017-12-06T09:22:16.718Z,24
2017-12-06T09:23:24.803Z,24
2017-12-06T09:24:32.884Z,24
2017-12-06T09:25:40.971Z,28
2017-12-06T09:26:49.064Z,24
2017-12-06T09:27:57.167Z,28
2017-12-06T09:29:05.234Z,28
2017-12-06T09:30:13.320Z,28
2017-12-06T09:31:21.412Z,24
2017-12-06T09:32:29.497Z,28
2017-12-06T09:33:37.579Z,28
2017-12-06T09:34:45.662Z,24
2017-12-06T09:35:53.749Z,24
2017-12-06T09:37:01.835Z,24
2017-12-06T09:38:09.920Z,24
2017-12-06T09:39:18.009Z,28
2017-12-06T09:40:26.097Z,28
2017-12-06T09:41:34.187Z,28
2017-12-06T09:42:42.276Z,28
2017-12-06T09:43:50.367Z,28
2017-12-06T09:44:58.441Z,28
2017-12-06T09:46:06.524Z,28
2017-12-06T09:47:14.610Z,28
2017-12-06T09:48:22.697Z,28
2017-12-06T09:49:30.783Z,24
2017-12-06T09:50:38.868Z,28
2017-12-06T09:51:46.953Z,24
2017-12-06T09:52:55.045Z,28
2017-12-06T09:54:03.147Z,28
2017-12-06T09:55:11.238Z,28
2017-12-06T09:56:19.294Z,28
2017-12-06T09:57:27.381Z,28
2017-12-06T09:58:35.471Z,24
2017-12-06T09:59:43.553Z,28
2017-12-06T10:00:51.641Z,32
2017-12-06T10:01:59.727Z,32
2017-12-06T10:03:07.810Z,32
2017-12-06T10:04:15.930Z,32
2017-12-06T10:05:23.979Z,32
2017-12-06T10:06:32.067Z,32
2017-12-06T10:07:40.170Z,28
2017-12-06T10:08:48.546Z,32
2017-12-06T10:09:56.633Z,28
2017-12-06T10:11:04.716Z,32
2017-12-06T10:12:12.802Z,28
2017-12-06T10:13:20.886Z,28
2017-12-06T10:14:28.977Z,32
2017-12-06T10:15:37.058Z,28
2017-12-06T10:16:45.150Z,32
2017-12-06T10:17:53.241Z,28
2017-12-06T10:19:01.319Z,28
2017-12-06T10:20:09.405Z,32
2017-12-06T10:21:17.490Z,32
2017-12-06T10:22:25.574Z,32
2017-12-06T10:23:33.657Z,36
2017-12-06T10:24:41.743Z,36
2017-12-06T10:25:49.829Z,32
2017-12-06T10:26:57.990Z,32
2017-12-06T10:28:06.011Z,32
2017-12-06T10:29:14.089Z,32
2017-12-06T10:30:22.244Z,36
2017-12-06T10:31:30.256Z,32
2017-12-06T10:32:38.346Z,32
2017-12-06T10:33:46.427Z,32
2017-12-06T10:34:54.511Z,28
2017-12-06T10:36:02.597Z,28
2017-12-06T10:37:10.682Z,28
2017-12-06T10:38:18.769Z,28
2017-12-06T10:39:26.855Z,28
2017-12-06T10:40:34.940Z,28
2017-12-06T10:41:43.026Z,28
2017-12-06T10:42:51.129Z,24
2017-12-06T10:43:59.201Z,24
2017-12-06T10:45:07.286Z,28
2017-12-06T10:46:15.371Z,28
2017-12-06T10:47:23.451Z,28
2017-12-06T10:48:31.538Z,24
2017-12-06T10:49:39.622Z,24
2017-12-06T10:50:47.708Z,28
2017-12-06T10:51:55.790Z,28
2017-12-06T10:53:03.877Z,24
2017-12-06T10:54:11.961Z,28
2017-12-06T10:55:20.046Z,28
2017-12-06T10:56:28.133Z,28
2017-12-06T10:57:36.235Z,28
2017-12-06T10:58:44.330Z,24
2017-12-06T10:59:52.418Z,28
2017-12-06T11:01:00.507Z,24
2017-12-06T11:02:08.604Z,24
2017-12-06T11:03:16.691Z,24
2017-12-06T11:04:24.779Z,28
2017-12-06T11:05:32.862Z,28
2017-12-06T11:06:40.946Z,28
2017-12-06T11:07:49.078Z,32
2017-12-06T11:08:57.120Z,32
2017-12-06T11:10:05.205Z,32
2017-12-06T11:11:13.294Z,32
2017-12-06T11:12:21.374Z,32
2017-12-06T11:13:29.465Z,28
2017-12-06T11:14:37.559Z,32
2017-12-06T11:15:45.654Z,32
2017-12-06T11:16:53.728Z,32
2017-12-06T11:18:01.820Z,32
2017-12-06T11:19:09.903Z,32
2017-12-06T11:20:17.991Z,32
2017-12-06T11:21:26.075Z,32
2017-12-06T11:22:34.162Z,32
2017-12-06T11:23:42.245Z,32
2017-12-06T11:24:50.330Z,28
2017-12-06T11:25:58.414Z,32
2017-12-06T11:27:06.497Z,32
2017-12-06T11:28:14.583Z,32
2017-12-06T11:29:22.669Z,32
2017-12-06T11:30:30.755Z,28
2017-12-06T11:31:38.840Z,28
2017-12-06T11:32:46.925Z,28
2017-12-06T11:33:55.011Z,28
2017-12-06T11:35:03.093Z,28
2017-12-06T11:36:11.197Z,28
2017-12-06T11:37:19.262Z,32
2017-12-06T11:38:27.358Z,28
2017-12-06T11:39:35.435Z,32
2017-12-06T11:40:43.525Z,32
2017-12-06T11:41:51.604Z,28
2017-12-06T11:42:59.693Z,32
2017-12-06T11:44:07.772Z,28
2017-12-06T11:45:15.894Z,28
2017-12-06T11:46:23.940Z,28
2017-12-06T11:47:32.027Z,32
2017-12-06T11:48:40.245Z,28
2017-12-06T11:49:48.335Z,28
2017-12-06T11:50:56.418Z,28
2017-12-06T11:52:04.513Z,32
2017-12-06T11:53:12.585Z,32
2017-12-06T11:54:20.670Z,32
2017-12-06T11:55:28.754Z,32
2017-12-06T11:56:36.842Z,32
2017-12-06T11:57:44.925Z,32
2017-12-06T11:58:53.010Z,28
2017-12-06T12:00:01.213Z,28
2017-12-06T12:01:09.186Z,28
2017-12-06T12:02:17.327Z,28
2017-12-06T12:03:25.353Z,28
2017-12-06T12:04:33.433Z,28
2017-12-06T12:05:41.517Z,28
2017-12-06T12:06:49.602Z,24
2017-12-06T12:07:57.688Z,28
2017-12-06T12:09:05.774Z,28
2017-12-06T12:10:13.859Z,24
2017-12-06T12:11:21.942Z,24
2017-12-06T12:12:30.030Z,28
2017-12-06T12:13:38.114Z,24
2017-12-06T12:14:46.200Z,28
2017-12-06T12:15:54.740Z,24
2017-12-06T12:17:02.365Z,24
2017-12-06T12:18:10.452Z,24
2017-12-06T12:19:18.537Z,24
2017-12-06T12:20:26.628Z,24
2017-12-06T12:21:34.709Z,24
2017-12-06T12:22:42.793Z,24
2017-12-06T12:23:50.875Z,24
2017-12-06T12:24:59.013Z,20
2017-12-06T12:26:07.049Z,20
2017-12-06T12:27:15.129Z,20
2017-12-06T12:28:23.215Z,24
2017-12-06T12:29:31.300Z,24
2017-12-06T12:30:39.383Z,24
2017-12-06T12:31:47.476Z,24
2017-12-06T12:32:55.551Z,24
2017-12-06T12:34:03.636Z,24
2017-12-06T12:35:11.720Z,24
2017-12-06T12:36:19.813Z,24
2017-12-06T12:37:27.894Z,24
2017-12-06T12:38:35.979Z,24
2017-12-06T12:39:44.557Z,20
2017-12-06T12:40:52.163Z,24
2017-12-06T12:42:00.228Z,20
2017-12-06T12:43:08.313Z,20
2017-12-06T12:44:16.394Z,20
2017-12-06T12:45:24.490Z,20
2017-12-06T12:46:32.575Z,20
2017-12-06T12:47:40.670Z,20
2017-12-06T12:48:48.744Z,24
2017-12-06T12:49:56.830Z,20
2017-12-06T12:51:04.919Z,20
2017-12-06T12:52:12.997Z,20
2017-12-06T12:53:21.080Z,20
2017-12-06T12:54:29.169Z,20
2017-12-06T12:55:37.250Z,20
2017-12-06T12:56:45.338Z,20
2017-12-06T12:57:53.419Z,20
2017-12-06T12:59:01.502Z,20
2017-12-06T13:00:09.588Z,20
2017-12-06T13:01:17.672Z,16
2017-12-06T13:02:25.761Z,20
2017-12-06T13:03:33.843Z,20
2017-12-06T13:04:41.927Z,16
2017-12-06T13:05:50.017Z,20
2017-12-06T13:06:58.105Z,16
2017-12-06T13:08:06.193Z,16
2017-12-06T13:09:14.283Z,16
2017-12-06T13:10:22.376Z,16
2017-12-06T13:11:30.462Z,16
2017-12-06T13:12:38.543Z,16
2017-12-06T13:13:46.632Z,16
2017-12-06T13:14:54.715Z,16
2017-12-06T13:16:02.798Z,16
2017-12-06T13:17:10.881Z,16
2017-12-06T13:18:18.976Z,16
2017-12-06T13:19:27.055Z,16
2017-12-06T13:20:35.155Z,16
2017-12-06T13:21:43.237Z,16
2017-12-06T13:22:51.313Z,16
2017-12-06T13:24:00.912Z,16
2017-12-06T13:25:08.995Z,12
2017-12-06T13:26:17.080Z,16
2017-12-06T13:27:25.164Z,12
2017-12-06T13:28:33.252Z,12
2017-12-06T13:29:41.331Z,16
2017-12-06T13:30:49.416Z,16
2017-12-06T13:31:57.502Z,16
2017-12-06T13:33:05.588Z,12
2017-12-06T13:34:13.670Z,12
2017-12-06T13:35:21.753Z,12
2017-12-06T13:36:29.838Z,12
2017-12-06T13:37:37.920Z,12
2017-12-06T13:38:46.006Z,16
2017-12-06T13:39:54.097Z,12
2017-12-06T13:41:02.179Z,12
2017-12-06T13:42:10.259Z,12
2017-12-06T13:43:18.342Z,12
2017-12-06T13:44:26.687Z,12
2017-12-06T13:45:34.772Z,12
2017-12-06T13:46:42.856Z,12
2017-12-06T13:47:50.939Z,12
2017-12-06T13:48:59.021Z,12
2017-12-06T13:50:07.116Z,12
2017-12-06T13:51:15.208Z,12
2017-12-06T13:52:23.275Z,12
2017-12-06T13:53:31.362Z,12
2017-12-06T13:54:39.448Z,12
2017-12-06T13:55:47.651Z,12
2017-12-06T13:56:55.677Z,8
2017-12-06T13:58:03.757Z,12
2017-12-06T13:59:11.840Z,12
2017-12-06T14:00:19.926Z,12
2017-12-06T14:01:28.007Z,8
2017-12-06T14:02:36.098Z,8
2017-12-06T14:03:44.175Z,8
2017-12-06T14:04:52.262Z,8
2017-12-06T14:06:00.348Z,12
2017-12-06T14:07:08.436Z,8
2017-12-06T14:08:16.512Z,8
2017-12-06T14:09:24.596Z,8
2017-12-06T14:10:32.681Z,8
2017-12-06T14:11:40.764Z,8
2017-12-06T14:12:48.857Z,8
2017-12-06T14:13:56.942Z,4
2017-12-06T14:15:05.025Z,8
2017-12-06T14:16:13.109Z,8
2017-12-06T14:17:21.196Z,8
2017-12-06T14:18:29.352Z,8
2017-12-06T14:19:37.440Z,8
2017-12-06T14:20:45.522Z,8
2017-12-06T14:21:53.606Z,8
2017-12-06T14:23:01.689Z,8
2017-12-06T14:24:09.773Z,8
2017-12-06T14:25:17.857Z,8
2017-12-06T14:26:25.940Z,8
2017-12-06T14:27:34.025Z,8
2017-12-06T14:28:42.113Z,8
2017-12-06T14:29:50.191Z,8
2017-12-06T14:30:58.277Z,8
2017-12-06T14:32:06.363Z,4
2017-12-06T14:33:14.442Z,4
2017-12-06T14:34:22.525Z,4
2017-12-06T14:35:30.611Z,4
2017-12-06T14:36:38.691Z,4
2017-12-06T14:37:46.778Z,8
2017-12-06T14:38:54.863Z,4
2017-12-06T14:40:02.945Z,4
2017-12-06T14:41:11.046Z,4
2017-12-06T14:42:19.117Z,8
2017-12-06T14:43:27.197Z,4
2017-12-06T14:44:35.280Z,4
2017-12-06T14:45:43.367Z,4
2017-12-06T14:46:51.452Z,4
2017-12-06T14:47:59.539Z,4
2017-12-06T14:49:07.619Z,4
2017-12-06T14:50:15.702Z,4
2017-12-06T14:51:23.787Z,4
2017-12-06T14:52:31.877Z,4
2017-12-06T14:53:39.955Z,0
2017-12-06T14:54:48.066Z,0
2017-12-06T14:55:56.146Z,0
2017-12-06T14:57:04.216Z,0
2017-12-06T14:58:12.301Z,4
2017-12-06T14:59:20.398Z,4
2017-12-06T15:00:28.469Z,4
2017-12-06T15:01:36.552Z,4
2017-12-06T15:02:44.642Z,4
2017-12-06T15:03:52.720Z,4
2017-12-06T15:05:00.806Z,4
2017-12-06T15:06:08.887Z,0
2017-12-06T15:07:16.975Z,0
2017-12-06T15:08:25.060Z,0
2017-12-06T15:09:33.148Z,0
2017-12-06T15:10:41.233Z,0
2017-12-06T15:11:49.313Z,4
2017-12-06T15:12:57.398Z,4
2017-12-06T15:14:05.502Z,4
2017-12-06T15:15:13.566Z,4
2017-12-06T15:16:21.714Z,0
2017-12-06T15:17:29.735Z,0
2017-12-06T15:18:37.820Z,0
2017-12-06T15:19:45.902Z,0
2017-12-06T15:20:53.991Z,0
2017-12-06T15:22:02.074Z,0
2017-12-06T15:23:10.153Z,0
2017-12-06T15:24:18.440Z,0
2017-12-06T15:25:26.529Z,0
2017-12-06T15:26:34.608Z,0
2017-12-06T15:27:42.693Z,0
2017-12-06T15:28:50.774Z,0
2017-12-06T15:29:58.860Z,0
2017-12-06T15:31:06.944Z,0
2017-12-06T15:32:15.029Z,0
2017-12-06T15:33:23.123Z,0
2017-12-06T15:34:31.199Z,0
2017-12-06T15:35:39.288Z,0
2017-12-06T15:36:47.380Z,0
2017-12-06T15:37:55.457Z,0
2017-12-06T15:39:03.540Z,0
2017-12-06T15:40:11.646Z,0
2017-12-06T15:41:19.721Z,0
2017-12-06T15:42:27.884Z,0
2017-12-06T15:43:35.897Z,0
2017-12-06T15:44:43.974Z,0
2017-12-06T15:45:52.061Z,0
2017-12-06T15:47:00.150Z,0
2017-12-06T15:48:08.460Z,0
2017-12-06T15:49:16.323Z,0
2017-12-06T15:50:24.407Z,0
2017-12-06T15:51:32.489Z,0
2017-12-06T15:52:40.575Z,0
2017-12-06T15:53:48.656Z,0
2017-12-06T15:54:56.740Z,0
2017-12-06T15:56:04.823Z,0
2017-12-06T15:57:12.910Z,0
2017-12-06T15:58:20.996Z,0
2017-12-06T15:59:29.098Z,0
2017-12-06T16:00:37.677Z,0
2017-12-06T16:01:45.761Z,0
2017-12-06T16:02:53.844Z,0
2017-12-06T16:04:01.934Z,0
2017-12-06T16:05:10.013Z,0
2017-12-06T16:06:18.104Z,0
2017-12-06T16:07:26.198Z,0
2017-12-06T16:08:34.281Z,0
2017-12-06T16:09:42.366Z,0
2017-12-06T16:10:50.448Z,0
2017-12-06T16:11:58.532Z,0
2017-12-06T16:13:06.618Z,0
2017-12-06T16:14:14.702Z,0
2017-12-06T16:15:22.792Z,0
2017-12-06T16:16:30.874Z,0
2017-12-06T16:17:38.957Z,0
2017-12-06T16:18:47.047Z,0
2017-12-06T16:19:55.130Z,0
2017-12-06T16:21:03.215Z,0
2017-12-06T16:22:11.302Z,0
2017-12-06T16:23:19.510Z,0
2017-12-06T16:24:27.606Z,0
2017-12-06T16:25:35.678Z,0
2017-12-06T16:26:43.764Z,0
2017-12-06T16:27:51.847Z,0
2017-12-06T16:28:59.932Z,0
2017-12-06T16:30:08.017Z,0
2017-12-06T16:31:16.107Z,0
2017-12-06T16:32:24.189Z,0
2017-12-06T16:33:32.269Z,0